sensor_id;sensor_type;location;lat;lon;timestamp;pressure;altitude;pressure_sealevel;temperature;humidity
50867;BME280;36839;51.946;21.002;2023-02-23T00:00:53;100566.91;;;-2.44;100.00
50867;BME280;36839;51.946;21.002;2023-02-23T00:03:20;100562.97;;;-2.49;100.00
50867;BME280;36839;51.946;21.002;2023-02-23T00:05:47;100561.38;;;-2.52;100.00
50867;BME280;36839;51.946;21.002;2023-02-23T00:08:14;100562.64;;;-2.55;100.00
50867;BME280;36839;51.946;21.002;2023-02-23T00:10:41;100558.04;;;-2.58;100.00
50867;BME280;36839;51.946;21.002;2023-02-23T00:13:10;100557.25;;;-2.61;100.00
50867;BME280;36839;51.946;21.002;2023-02-23T00:15:38;100563.59;;;-2.62;100.00
50867;BME280;36839;51.946;21.002;2023-02-23T00:18:06;100559.98;;;-2.66;100.00
50867;BME280;36839;51.946;21.002;2023-02-23T00:20:34;100561.61;;;-2.69;100.00
50867;BME280;36839;51.946;21.002;2023-02-23T00:23:02;100562.83;;;-2.73;100.00
50867;BME280;36839;51.946;21.002;2023-02-23T00:25:30;100560.00;;;-2.78;100.00
50867;BME280;36839;51.946;21.002;2023-02-23T00:27:56;100560.30;;;-2.84;100.00
50867;BME280;36839;51.946;21.002;2023-02-23T00:30:24;100558.59;;;-2.88;100.00
50867;BME280;36839;51.946;21.002;2023-02-23T00:32:52;100559.34;;;-2.90;100.00
50867;BME280;36839;51.946;21.002;2023-02-23T00:35:19;100556.85;;;-2.93;100.00
50867;BME280;36839;51.946;21.002;2023-02-23T00:37:47;100555.89;;;-2.97;100.00
50867;BME280;36839;51.946;21.002;2023-02-23T00:40:16;100556.59;;;-3.00;100.00
50867;BME280;36839;51.946;21.002;2023-02-23T00:42:45;100548.64;;;-3.03;100.00
50867;BME280;36839;51.946;21.002;2023-02-23T00:45:13;100548.65;;;-3.07;100.00
50867;BME280;36839;51.946;21.002;2023-02-23T00:47:42;100551.25;;;-3.10;100.00
50867;BME280;36839;51.946;21.002;2023-02-23T00:50:13;100545.34;;;-3.12;100.00
50867;BME280;36839;51.946;21.002;2023-02-23T00:52:43;100549.68;;;-3.14;100.00
50867;BME280;36839;51.946;21.002;2023-02-23T00:55:12;100541.66;;;-3.17;100.00
50867;BME280;36839;51.946;21.002;2023-02-23T00:57:39;100540.16;;;-3.19;100.00
50867;BME280;36839;51.946;21.002;2023-02-23T01:00:09;100536.92;;;-3.21;100.00
50867;BME280;36839;51.946;21.002;2023-02-23T01:02:59;100539.63;;;-3.22;100.00
50867;BME280;36839;51.946;21.002;2023-02-23T01:05:27;100538.41;;;-3.24;100.00
50867;BME280;36839;51.946;21.002;2023-02-23T01:07:54;100537.04;;;-3.26;100.00
50867;BME280;36839;51.946;21.002;2023-02-23T01:10:21;100537.79;;;-3.28;100.00
50867;BME280;36839;51.946;21.002;2023-02-23T01:12:50;100534.34;;;-3.31;100.00
50867;BME280;36839;51.946;21.002;2023-02-23T01:15:18;100535.27;;;-3.34;100.00
50867;BME280;36839;51.946;21.002;2023-02-23T01:17:47;100536.09;;;-3.37;100.00
50867;BME280;36839;51.946;21.002;2023-02-23T01:20:17;100532.80;;;-3.39;100.00
50867;BME280;36839;51.946;21.002;2023-02-23T01:22:48;100534.66;;;-3.42;100.00
50867;BME280;36839;51.946;21.002;2023-02-23T01:25:17;100532.48;;;-3.45;100.00
50867;BME280;36839;51.946;21.002;2023-02-23T01:27:47;100530.30;;;-3.46;100.00
50867;BME280;36839;51.946;21.002;2023-02-23T01:30:16;100532.44;;;-3.48;100.00
50867;BME280;36839;51.946;21.002;2023-02-23T01:32:46;100531.56;;;-3.50;100.00
50867;BME280;36839;51.946;21.002;2023-02-23T01:35:13;100529.70;;;-3.51;100.00
50867;BME280;36839;51.946;21.002;2023-02-23T01:37:41;100525.59;;;-3.54;100.00
50867;BME280;36839;51.946;21.002;2023-02-23T01:40:15;100524.78;;;-3.57;100.00
50867;BME280;36839;51.946;21.002;2023-02-23T01:42:45;100525.20;;;-3.58;100.00
50867;BME280;36839;51.946;21.002;2023-02-23T01:45:30;100521.25;;;-3.60;100.00
50867;BME280;36839;51.946;21.002;2023-02-23T01:48:21;100524.45;;;-3.63;100.00
50867;BME280;36839;51.946;21.002;2023-02-23T01:50:53;100518.76;;;-3.65;100.00
50867;BME280;36839;51.946;21.002;2023-02-23T01:53:22;100515.98;;;-3.67;100.00
50867;BME280;36839;51.946;21.002;2023-02-23T01:56:02;100514.01;;;-3.73;100.00
50867;BME280;36839;51.946;21.002;2023-02-23T01:58:32;100513.21;;;-3.77;100.00
50867;BME280;36839;51.946;21.002;2023-02-23T02:01:00;100510.06;;;-3.80;100.00
50867;BME280;36839;51.946;21.002;2023-02-23T02:06:17;100510.98;;;-3.86;100.00
50867;BME280;36839;51.946;21.002;2023-02-23T02:08:48;100515.84;;;-3.89;100.00
50867;BME280;36839;51.946;21.002;2023-02-23T02:11:21;100512.23;;;-3.92;100.00
50867;BME280;36839;51.946;21.002;2023-02-23T02:13:54;100511.13;;;-3.95;100.00
50867;BME280;36839;51.946;21.002;2023-02-23T02:16:32;100510.45;;;-3.97;100.00
50867;BME280;36839;51.946;21.002;2023-02-23T02:19:33;100511.39;;;-3.99;100.00
50867;BME280;36839;51.946;21.002;2023-02-23T02:43:14;100511.52;;;-4.11;100.00
50867;BME280;36839;51.946;21.002;2023-02-23T02:45:50;100508.77;;;-4.10;100.00
50867;BME280;36839;51.946;21.002;2023-02-23T02:48:44;100508.19;;;-4.08;100.00
50867;BME280;36839;51.946;21.002;2023-02-23T02:51:35;100505.98;;;-4.07;100.00
50867;BME280;36839;51.946;21.002;2023-02-23T02:54:26;100506.63;;;-4.09;100.00
50867;BME280;36839;51.946;21.002;2023-02-23T02:56:59;100502.30;;;-4.12;100.00
50867;BME280;36839;51.946;21.002;2023-02-23T02:59:27;100502.70;;;-4.13;100.00
50867;BME280;36839;51.946;21.002;2023-02-23T03:02:18;100500.42;;;-4.16;100.00
50867;BME280;36839;51.946;21.002;2023-02-23T03:05:13;100502.36;;;-4.18;100.00
50867;BME280;36839;51.946;21.002;2023-02-23T03:08:06;100498.73;;;-4.21;100.00
50867;BME280;36839;51.946;21.002;2023-02-23T03:11:09;100496.06;;;-4.23;100.00
50867;BME280;36839;51.946;21.002;2023-02-23T03:17:11;100494.23;;;-4.23;100.00
50867;BME280;36839;51.946;21.002;2023-02-23T03:20:23;100497.06;;;-4.23;100.00
50867;BME280;36839;51.946;21.002;2023-02-23T03:23:41;100492.73;;;-4.24;100.00
50867;BME280;36839;51.946;21.002;2023-02-23T03:26:39;100491.59;;;-4.25;100.00
50867;BME280;36839;51.946;21.002;2023-02-23T03:29:48;100490.21;;;-4.27;100.00
50867;BME280;36839;51.946;21.002;2023-02-23T03:32:48;100497.30;;;-4.30;100.00
50867;BME280;36839;51.946;21.002;2023-02-23T03:38:44;100495.02;;;-4.35;100.00
50867;BME280;36839;51.946;21.002;2023-02-23T03:41:33;100495.55;;;-4.34;100.00
50867;BME280;36839;51.946;21.002;2023-02-23T03:44:28;100496.13;;;-4.34;100.00
50867;BME280;36839;51.946;21.002;2023-02-23T03:47:17;100501.41;;;-4.31;100.00
50867;BME280;36839;51.946;21.002;2023-02-23T03:50:06;100503.84;;;-4.25;100.00
50867;BME280;36839;51.946;21.002;2023-02-23T03:52:58;100506.17;;;-4.19;100.00
50867;BME280;36839;51.946;21.002;2023-02-23T03:55:49;100508.13;;;-4.12;100.00
50867;BME280;36839;51.946;21.002;2023-02-23T03:58:45;100507.72;;;-4.02;100.00
50867;BME280;36839;51.946;21.002;2023-02-23T04:01:32;100510.83;;;-3.92;100.00
50867;BME280;36839;51.946;21.002;2023-02-23T04:04:21;100508.77;;;-3.84;100.00
50867;BME280;36839;51.946;21.002;2023-02-23T04:07:09;100509.32;;;-3.74;100.00
50867;BME280;36839;51.946;21.002;2023-02-23T04:09:58;100510.05;;;-3.66;100.00
50867;BME280;36839;51.946;21.002;2023-02-23T04:12:57;100510.67;;;-3.58;100.00
50867;BME280;36839;51.946;21.002;2023-02-23T04:16:05;100508.37;;;-3.50;100.00
50867;BME280;36839;51.946;21.002;2023-02-23T04:18:35;100511.48;;;-3.42;100.00
50867;BME280;36839;51.946;21.002;2023-02-23T04:21:03;100508.88;;;-3.37;100.00
50867;BME280;36839;51.946;21.002;2023-02-23T04:23:31;100511.80;;;-3.31;100.00
50867;BME280;36839;51.946;21.002;2023-02-23T04:25:58;100509.21;;;-3.26;100.00
50867;BME280;36839;51.946;21.002;2023-02-23T04:28:27;100509.70;;;-3.20;100.00
50867;BME280;36839;51.946;21.002;2023-02-23T04:30:54;100511.06;;;-3.17;100.00
50867;BME280;36839;51.946;21.002;2023-02-23T04:33:21;100506.39;;;-3.12;100.00
50867;BME280;36839;51.946;21.002;2023-02-23T04:35:53;100505.88;;;-3.09;100.00
50867;BME280;36839;51.946;21.002;2023-02-23T04:38:21;100509.33;;;-3.05;100.00
50867;BME280;36839;51.946;21.002;2023-02-23T04:40:49;100502.88;;;-3.01;100.00
50867;BME280;36839;51.946;21.002;2023-02-23T04:43:16;100504.16;;;-2.97;100.00
50867;BME280;36839;51.946;21.002;2023-02-23T04:45:43;100503.11;;;-2.93;100.00
50867;BME280;36839;51.946;21.002;2023-02-23T04:48:10;100501.25;;;-2.88;100.00
50867;BME280;36839;51.946;21.002;2023-02-23T04:50:37;100502.77;;;-2.83;100.00
50867;BME280;36839;51.946;21.002;2023-02-23T04:53:05;100496.98;;;-2.78;100.00
50867;BME280;36839;51.946;21.002;2023-02-23T04:55:32;100498.66;;;-2.74;100.00
50867;BME280;36839;51.946;21.002;2023-02-23T04:58:00;100499.45;;;-2.70;100.00
50867;BME280;36839;51.946;21.002;2023-02-23T05:00:28;100497.63;;;-2.66;100.00
50867;BME280;36839;51.946;21.002;2023-02-23T05:02:55;100497.13;;;-2.61;100.00
50867;BME280;36839;51.946;21.002;2023-02-23T05:05:23;100495.89;;;-2.58;100.00
50867;BME280;36839;51.946;21.002;2023-02-23T05:07:50;100496.01;;;-2.55;100.00
50867;BME280;36839;51.946;21.002;2023-02-23T05:10:16;100490.55;;;-2.51;100.00
50867;BME280;36839;51.946;21.002;2023-02-23T05:12:43;100491.91;;;-2.49;100.00
50867;BME280;36839;51.946;21.002;2023-02-23T05:15:10;100493.86;;;-2.46;100.00
50867;BME280;36839;51.946;21.002;2023-02-23T05:17:41;100495.34;;;-2.41;100.00
50867;BME280;36839;51.946;21.002;2023-02-23T05:20:10;100495.34;;;-2.39;100.00
50867;BME280;36839;51.946;21.002;2023-02-23T05:22:38;100494.77;;;-2.35;100.00
50867;BME280;36839;51.946;21.002;2023-02-23T05:25:06;100497.17;;;-2.33;100.00
50867;BME280;36839;51.946;21.002;2023-02-23T05:27:34;100496.17;;;-2.30;100.00
50867;BME280;36839;51.946;21.002;2023-02-23T05:30:05;100493.69;;;-2.27;100.00
50867;BME280;36839;51.946;21.002;2023-02-23T05:32:33;100490.57;;;-2.25;100.00
50867;BME280;36839;51.946;21.002;2023-02-23T05:35:00;100491.69;;;-2.23;100.00
50867;BME280;36839;51.946;21.002;2023-02-23T05:37:28;100493.19;;;-2.20;100.00
50867;BME280;36839;51.946;21.002;2023-02-23T05:39:55;100493.95;;;-2.17;100.00
50867;BME280;36839;51.946;21.002;2023-02-23T05:42:21;100493.05;;;-2.17;100.00
50867;BME280;36839;51.946;21.002;2023-02-23T05:44:48;100492.70;;;-2.16;100.00
50867;BME280;36839;51.946;21.002;2023-02-23T05:47:15;100499.88;;;-2.14;100.00
50867;BME280;36839;51.946;21.002;2023-02-23T05:49:42;100501.13;;;-2.11;100.00
50867;BME280;36839;51.946;21.002;2023-02-23T05:52:12;100502.81;;;-2.08;100.00
50867;BME280;36839;51.946;21.002;2023-02-23T05:54:39;100497.36;;;-2.07;100.00
50867;BME280;36839;51.946;21.002;2023-02-23T05:57:07;100499.94;;;-2.04;100.00
50867;BME280;36839;51.946;21.002;2023-02-23T05:59:35;100500.59;;;-2.02;100.00
50867;BME280;36839;51.946;21.002;2023-02-23T06:02:02;100500.33;;;-2.00;100.00
50867;BME280;36839;51.946;21.002;2023-02-23T06:04:31;100498.80;;;-1.97;100.00
50867;BME280;36839;51.946;21.002;2023-02-23T06:06:58;100496.12;;;-1.96;100.00
50867;BME280;36839;51.946;21.002;2023-02-23T06:09:25;100496.01;;;-1.95;100.00
50867;BME280;36839;51.946;21.002;2023-02-23T06:11:52;100495.45;;;-1.92;100.00
50867;BME280;36839;51.946;21.002;2023-02-23T06:14:19;100497.08;;;-1.89;100.00
50867;BME280;36839;51.946;21.002;2023-02-23T06:16:46;100496.23;;;-1.87;100.00
50867;BME280;36839;51.946;21.002;2023-02-23T06:19:14;100498.57;;;-1.84;100.00
50867;BME280;36839;51.946;21.002;2023-02-23T06:21:41;100503.38;;;-1.80;100.00
50867;BME280;36839;51.946;21.002;2023-02-23T06:24:08;100501.77;;;-1.77;100.00
50867;BME280;36839;51.946;21.002;2023-02-23T06:26:35;100506.38;;;-1.72;100.00
50867;BME280;36839;51.946;21.002;2023-02-23T06:29:02;100504.96;;;-1.67;100.00
50867;BME280;36839;51.946;21.002;2023-02-23T06:31:29;100502.56;;;-1.63;100.00
50867;BME280;36839;51.946;21.002;2023-02-23T06:33:57;100503.36;;;-1.59;100.00
50867;BME280;36839;51.946;21.002;2023-02-23T06:36:26;100504.98;;;-1.53;100.00
50867;BME280;36839;51.946;21.002;2023-02-23T06:38:57;100504.78;;;-1.50;100.00
50867;BME280;36839;51.946;21.002;2023-02-23T06:41:26;100503.08;;;-1.46;100.00
50867;BME280;36839;51.946;21.002;2023-02-23T06:43:53;100510.79;;;-1.41;100.00
50867;BME280;36839;51.946;21.002;2023-02-23T06:46:20;100507.52;;;-1.36;100.00
50867;BME280;36839;51.946;21.002;2023-02-23T06:48:48;100506.80;;;-1.32;100.00
50867;BME280;36839;51.946;21.002;2023-02-23T06:51:15;100503.30;;;-1.29;100.00
50867;BME280;36839;51.946;21.002;2023-02-23T06:53:42;100503.38;;;-1.23;100.00
50867;BME280;36839;51.946;21.002;2023-02-23T06:56:10;100505.31;;;-1.19;100.00
50867;BME280;36839;51.946;21.002;2023-02-23T06:58:40;100501.77;;;-1.13;100.00
50867;BME280;36839;51.946;21.002;2023-02-23T07:01:08;100502.92;;;-1.08;100.00
50867;BME280;36839;51.946;21.002;2023-02-23T07:03:38;100506.67;;;-1.05;100.00
50867;BME280;36839;51.946;21.002;2023-02-23T07:06:05;100504.77;;;-1.02;100.00
50867;BME280;36839;51.946;21.002;2023-02-23T07:08:33;100506.39;;;-0.98;100.00
50867;BME280;36839;51.946;21.002;2023-02-23T07:11:18;100504.89;;;-0.93;100.00
50867;BME280;36839;51.946;21.002;2023-02-23T07:13:45;100503.96;;;-0.89;100.00
50867;BME280;36839;51.946;21.002;2023-02-23T07:16:12;100503.38;;;-0.85;100.00
50867;BME280;36839;51.946;21.002;2023-02-23T07:18:42;100501.48;;;-0.81;100.00
50867;BME280;36839;51.946;21.002;2023-02-23T07:21:15;100502.73;;;-0.77;100.00
50867;BME280;36839;51.946;21.002;2023-02-23T07:23:51;100499.48;;;-0.74;100.00
50867;BME280;36839;51.946;21.002;2023-02-23T07:26:24;100494.40;;;-0.70;100.00
50867;BME280;36839;51.946;21.002;2023-02-23T07:28:51;100492.30;;;-0.63;100.00
50867;BME280;36839;51.946;21.002;2023-02-23T07:31:18;100490.61;;;-0.55;100.00
50867;BME280;36839;51.946;21.002;2023-02-23T07:33:46;100490.48;;;-0.50;100.00
50867;BME280;36839;51.946;21.002;2023-02-23T07:36:14;100492.27;;;-0.44;100.00
50867;BME280;36839;51.946;21.002;2023-02-23T07:38:42;100491.05;;;-0.37;100.00
50867;BME280;36839;51.946;21.002;2023-02-23T07:41:10;100489.09;;;-0.33;100.00
50867;BME280;36839;51.946;21.002;2023-02-23T07:43:36;100489.67;;;-0.34;100.00
50867;BME280;36839;51.946;21.002;2023-02-23T07:46:04;100485.57;;;-0.30;100.00
50867;BME280;36839;51.946;21.002;2023-02-23T07:48:30;100485.44;;;-0.27;100.00
50867;BME280;36839;51.946;21.002;2023-02-23T07:50:58;100484.04;;;-0.20;100.00
50867;BME280;36839;51.946;21.002;2023-02-23T07:53:25;100481.54;;;-0.08;100.00
50867;BME280;36839;51.946;21.002;2023-02-23T07:55:57;100480.98;;;0.07;100.00
50867;BME280;36839;51.946;21.002;2023-02-23T07:58:26;100476.41;;;0.10;100.00
50867;BME280;36839;51.946;21.002;2023-02-23T08:00:53;100475.61;;;0.17;100.00
50867;BME280;36839;51.946;21.002;2023-02-23T08:03:21;100475.25;;;0.24;100.00
50867;BME280;36839;51.946;21.002;2023-02-23T08:05:48;100471.59;;;0.33;100.00
50867;BME280;36839;51.946;21.002;2023-02-23T08:08:15;100470.24;;;0.36;100.00
50867;BME280;36839;51.946;21.002;2023-02-23T08:10:41;100467.23;;;0.40;100.00
50867;BME280;36839;51.946;21.002;2023-02-23T08:13:09;100462.62;;;0.48;100.00
50867;BME280;36839;51.946;21.002;2023-02-23T08:15:36;100464.45;;;0.50;100.00
50867;BME280;36839;51.946;21.002;2023-02-23T08:18:03;100463.04;;;0.59;100.00
50867;BME280;36839;51.946;21.002;2023-02-23T08:20:30;100463.61;;;0.65;100.00
50867;BME280;36839;51.946;21.002;2023-02-23T08:22:58;100460.60;;;0.70;100.00
50867;BME280;36839;51.946;21.002;2023-02-23T08:25:26;100456.50;;;0.78;100.00
50867;BME280;36839;51.946;21.002;2023-02-23T08:27:53;100455.59;;;0.86;100.00
50867;BME280;36839;51.946;21.002;2023-02-23T08:30:22;100446.98;;;0.91;100.00
50867;BME280;36839;51.946;21.002;2023-02-23T08:32:49;100449.73;;;0.95;100.00
50867;BME280;36839;51.946;21.002;2023-02-23T08:35:16;100447.27;;;1.00;100.00
50867;BME280;36839;51.946;21.002;2023-02-23T08:37:45;100447.15;;;1.07;100.00
50867;BME280;36839;51.946;21.002;2023-02-23T08:40:12;100439.88;;;1.13;100.00
50867;BME280;36839;51.946;21.002;2023-02-23T08:42:46;100440.78;;;1.14;100.00
50867;BME280;36839;51.946;21.002;2023-02-23T08:45:18;100441.29;;;1.20;100.00
50867;BME280;36839;51.946;21.002;2023-02-23T08:47:45;100440.98;;;1.25;100.00
50867;BME280;36839;51.946;21.002;2023-02-23T08:50:13;100436.68;;;1.33;100.00
50867;BME280;36839;51.946;21.002;2023-02-23T08:52:42;100435.37;;;1.41;100.00
50867;BME280;36839;51.946;21.002;2023-02-23T08:55:12;100431.42;;;1.54;100.00
50867;BME280;36839;51.946;21.002;2023-02-23T08:57:41;100430.02;;;1.63;100.00
50867;BME280;36839;51.946;21.002;2023-02-23T09:00:09;100427.89;;;1.75;100.00
50867;BME280;36839;51.946;21.002;2023-02-23T09:02:44;100423.85;;;1.89;100.00
50867;BME280;36839;51.946;21.002;2023-02-23T09:05:15;100422.09;;;1.99;100.00
50867;BME280;36839;51.946;21.002;2023-02-23T09:07:42;100424.31;;;2.08;100.00
50867;BME280;36839;51.946;21.002;2023-02-23T09:10:13;100420.62;;;2.18;100.00
50867;BME280;36839;51.946;21.002;2023-02-23T09:12:40;100422.06;;;2.32;100.00
50867;BME280;36839;51.946;21.002;2023-02-23T09:15:08;100419.38;;;2.37;100.00
50867;BME280;36839;51.946;21.002;2023-02-23T09:17:35;100418.83;;;2.42;100.00
50867;BME280;36839;51.946;21.002;2023-02-23T09:20:03;100418.91;;;2.47;100.00
50867;BME280;36839;51.946;21.002;2023-02-23T09:22:30;100419.30;;;2.56;100.00
50867;BME280;36839;51.946;21.002;2023-02-23T09:25:07;100414.23;;;2.70;100.00
50867;BME280;36839;51.946;21.002;2023-02-23T09:27:38;100419.10;;;2.84;100.00
50867;BME280;36839;51.946;21.002;2023-02-23T09:30:21;100409.18;;;2.98;100.00
50867;BME280;36839;51.946;21.002;2023-02-23T09:32:50;100410.39;;;3.04;100.00
50867;BME280;36839;51.946;21.002;2023-02-23T09:35:19;100410.95;;;3.06;100.00
50867;BME280;36839;51.946;21.002;2023-02-23T09:37:48;100403.91;;;3.06;100.00
50867;BME280;36839;51.946;21.002;2023-02-23T09:40:30;100403.83;;;3.05;100.00
50867;BME280;36839;51.946;21.002;2023-02-23T09:43:54;100402.73;;;2.96;100.00
50867;BME280;36839;51.946;21.002;2023-02-23T09:46:34;100395.52;;;2.94;100.00
50867;BME280;36839;51.946;21.002;2023-02-23T09:49:28;100394.88;;;2.95;100.00
50867;BME280;36839;51.946;21.002;2023-02-23T09:52:20;100393.73;;;2.99;100.00
50867;BME280;36839;51.946;21.002;2023-02-23T09:54:51;100387.83;;;2.98;100.00
50867;BME280;36839;51.946;21.002;2023-02-23T09:57:30;100387.45;;;3.03;100.00
50867;BME280;36839;51.946;21.002;2023-02-23T09:59:59;100381.34;;;3.11;100.00
50867;BME280;36839;51.946;21.002;2023-02-23T10:02:36;100382.22;;;3.18;100.00
50867;BME280;36839;51.946;21.002;2023-02-23T10:05:08;100377.59;;;3.28;100.00
50867;BME280;36839;51.946;21.002;2023-02-23T10:07:54;100379.58;;;3.38;100.00
50867;BME280;36839;51.946;21.002;2023-02-23T10:10:30;100369.98;;;3.48;100.00
50867;BME280;36839;51.946;21.002;2023-02-23T10:15:55;100366.83;;;3.56;100.00
50867;BME280;36839;51.946;21.002;2023-02-23T10:21:27;100361.41;;;3.77;100.00
50867;BME280;36839;51.946;21.002;2023-02-23T10:24:02;100359.63;;;4.25;100.00
50867;BME280;36839;51.946;21.002;2023-02-23T10:26:46;100357.48;;;4.30;100.00
50867;BME280;36839;51.946;21.002;2023-02-23T10:29:34;100355.44;;;4.45;100.00
50867;BME280;36839;51.946;21.002;2023-02-23T10:32:14;100347.20;;;4.66;100.00
50867;BME280;36839;51.946;21.002;2023-02-23T10:34:47;100344.40;;;4.74;100.00
50867;BME280;36839;51.946;21.002;2023-02-23T10:37:16;100340.65;;;4.78;100.00
50867;BME280;36839;51.946;21.002;2023-02-23T10:39:43;100338.70;;;4.73;100.00
50867;BME280;36839;51.946;21.002;2023-02-23T10:42:15;100332.36;;;4.64;100.00
50867;BME280;36839;51.946;21.002;2023-02-23T10:44:43;100327.23;;;4.61;100.00
50867;BME280;36839;51.946;21.002;2023-02-23T10:47:16;100320.05;;;4.81;100.00
50867;BME280;36839;51.946;21.002;2023-02-23T10:49:49;100318.45;;;4.92;100.00
50867;BME280;36839;51.946;21.002;2023-02-23T10:52:46;100315.70;;;5.02;98.20
50867;BME280;36839;51.946;21.002;2023-02-23T10:55:29;100309.83;;;5.18;98.38
50867;BME280;36839;51.946;21.002;2023-02-23T10:58:02;100306.29;;;5.36;98.14
50867;BME280;36839;51.946;21.002;2023-02-23T11:00:31;100298.95;;;5.50;95.82
50867;BME280;36839;51.946;21.002;2023-02-23T11:03:00;100297.04;;;5.56;96.79
50867;BME280;36839;51.946;21.002;2023-02-23T11:05:47;100284.41;;;5.36;91.55
50867;BME280;36839;51.946;21.002;2023-02-23T11:11:27;100279.61;;;5.03;91.46
50867;BME280;36839;51.946;21.002;2023-02-23T11:13:55;100272.17;;;5.04;93.46
50867;BME280;36839;51.946;21.002;2023-02-23T11:16:25;100273.66;;;5.06;93.13
50867;BME280;36839;51.946;21.002;2023-02-23T11:18:57;100271.67;;;5.18;94.50
50867;BME280;36839;51.946;21.002;2023-02-23T11:21:31;100264.66;;;5.30;95.76
50867;BME280;36839;51.946;21.002;2023-02-23T11:26:47;100258.65;;;5.27;91.32
50867;BME280;36839;51.946;21.002;2023-02-23T11:29:34;100258.97;;;5.28;91.82
50867;BME280;36839;51.946;21.002;2023-02-23T11:34:36;100251.70;;;5.42;92.17
50867;BME280;36839;51.946;21.002;2023-02-23T11:39:57;100242.69;;;5.59;91.98
50867;BME280;36839;51.946;21.002;2023-02-23T11:42:30;100239.55;;;5.63;89.92
50867;BME280;36839;51.946;21.002;2023-02-23T11:45:15;100232.72;;;5.68;90.74
50867;BME280;36839;51.946;21.002;2023-02-23T11:47:55;100226.40;;;5.77;92.02
50867;BME280;36839;51.946;21.002;2023-02-23T11:50:31;100227.64;;;5.74;87.49
50867;BME280;36839;51.946;21.002;2023-02-23T11:53:12;100220.19;;;5.71;86.25
50867;BME280;36839;51.946;21.002;2023-02-23T11:55:51;100219.11;;;5.70;87.40
50867;BME280;36839;51.946;21.002;2023-02-23T11:58:33;100215.39;;;5.75;87.19
50867;BME280;36839;51.946;21.002;2023-02-23T12:01:03;100213.27;;;5.68;84.45
50867;BME280;36839;51.946;21.002;2023-02-23T12:03:54;100205.39;;;5.68;85.01
50867;BME280;36839;51.946;21.002;2023-02-23T12:09:26;100199.74;;;5.71;85.12
50867;BME280;36839;51.946;21.002;2023-02-23T12:12:10;100196.02;;;5.79;86.25
50867;BME280;36839;51.946;21.002;2023-02-23T12:14:52;100191.59;;;5.84;86.69
50867;BME280;36839;51.946;21.002;2023-02-23T12:17:30;100186.61;;;5.87;86.28
50867;BME280;36839;51.946;21.002;2023-02-23T12:20:33;100185.48;;;5.90;86.78
50867;BME280;36839;51.946;21.002;2023-02-23T12:23:26;100176.86;;;5.93;86.87
50867;BME280;36839;51.946;21.002;2023-02-23T12:26:11;100171.50;;;5.89;84.78
50867;BME280;36839;51.946;21.002;2023-02-23T12:28:47;100170.17;;;5.82;82.30
50867;BME280;36839;51.946;21.002;2023-02-23T12:31:46;100168.10;;;5.87;82.98
50867;BME280;36839;51.946;21.002;2023-02-23T12:34:43;100163.42;;;5.93;83.90
50867;BME280;36839;51.946;21.002;2023-02-23T12:39:51;100149.52;;;5.96;84.34
50867;BME280;36839;51.946;21.002;2023-02-23T12:42:41;100148.05;;;5.94;84.35
50867;BME280;36839;51.946;21.002;2023-02-23T12:49:02;100136.70;;;5.94;86.37
50867;BME280;36839;51.946;21.002;2023-02-23T12:51:37;100131.86;;;5.94;86.28
50867;BME280;36839;51.946;21.002;2023-02-23T12:54:08;100127.42;;;5.86;83.91
50867;BME280;36839;51.946;21.002;2023-02-23T12:56:43;100131.06;;;5.81;84.56
50867;BME280;36839;51.946;21.002;2023-02-23T13:05:26;100120.48;;;5.75;83.56
50867;BME280;36839;51.946;21.002;2023-02-23T13:08:10;100113.03;;;5.76;83.21
50867;BME280;36839;51.946;21.002;2023-02-23T13:10:48;100111.22;;;5.72;82.14
50867;BME280;36839;51.946;21.002;2023-02-23T13:13:38;100108.41;;;5.76;82.84
50867;BME280;36839;51.946;21.002;2023-02-23T13:16:16;100106.13;;;5.70;81.91
50867;BME280;36839;51.946;21.002;2023-02-23T13:21:28;100099.98;;;5.70;82.23
50867;BME280;36839;51.946;21.002;2023-02-23T13:24:09;100098.39;;;5.75;82.88
50867;BME280;36839;51.946;21.002;2023-02-23T13:26:51;100095.07;;;5.77;82.72
50867;BME280;36839;51.946;21.002;2023-02-23T13:29:25;100093.97;;;5.81;82.59
50867;BME280;36839;51.946;21.002;2023-02-23T13:32:01;100090.71;;;5.88;82.88
50867;BME280;36839;51.946;21.002;2023-02-23T13:34:39;100087.55;;;5.91;82.99
50867;BME280;36839;51.946;21.002;2023-02-23T13:37:10;100088.27;;;5.94;83.90
50867;BME280;36839;51.946;21.002;2023-02-23T13:50:59;100068.10;;;5.91;83.58
50867;BME280;36839;51.946;21.002;2023-02-23T13:53:39;100064.08;;;5.90;84.72
50867;BME280;36839;51.946;21.002;2023-02-23T13:56:18;100060.80;;;5.84;83.71
50867;BME280;36839;51.946;21.002;2023-02-23T13:58:53;100056.06;;;5.80;83.03
50867;BME280;36839;51.946;21.002;2023-02-23T14:01:39;100055.70;;;5.81;83.23
50867;BME280;36839;51.946;21.002;2023-02-23T14:04:15;100052.54;;;5.82;84.07
50867;BME280;36839;51.946;21.002;2023-02-23T14:09:34;100044.50;;;5.78;84.20
50867;BME280;36839;51.946;21.002;2023-02-23T14:12:22;100041.59;;;5.75;84.38
50867;BME280;36839;51.946;21.002;2023-02-23T14:14:50;100042.61;;;5.73;85.01
50867;BME280;36839;51.946;21.002;2023-02-23T14:26:11;100030.29;;;5.82;85.89
50867;BME280;36839;51.946;21.002;2023-02-23T14:28:45;100028.00;;;5.86;85.51
50867;BME280;36839;51.946;21.002;2023-02-23T14:31:20;100024.04;;;5.85;85.51
50867;BME280;36839;51.946;21.002;2023-02-23T14:33:51;100023.33;;;5.82;83.88
50867;BME280;36839;51.946;21.002;2023-02-23T14:41:25;100010.08;;;5.66;83.41
50867;BME280;36839;51.946;21.002;2023-02-23T14:43:59;100003.93;;;5.60;84.28